Time;durP1;ratioP1;P1;durP2;ratioP2;P2;SDS_P1;SDS_P2;PMS_P1;PMS_P2;Temp;Humidity;BMP_temperature;BMP_pressure;BME280_temperature;BME280_humidity;BME280_pressure;Samples;Min_cycle;Max_cycle;Signal;HPM_P1;HPM_P2
2022/12/29 00:01:26;;;;;;;2.33;1.60;;;;;;;9.82;100.00;99926.31;5260716;28;20043;-68
2022/12/29 00:03:58;;;;;;;2.93;1.80;;;;;;;9.88;100.00;99917.50;5262054;28;20032;-68
2022/12/29 00:06:29;;;;;;;1.27;1.17;;;;;;;9.92;100.00;99921.75;5261994;28;20029;-66
2022/12/29 00:09:01;;;;;;;2.17;1.10;;;;;;;9.82;100.00;99938.44;5263778;28;20067;-68
2022/12/29 00:11:32;;;;;;;2.20;1.47;;;;;;;9.62;100.00;99920.72;5266248;28;20032;-67
2022/12/29 00:16:54;;;;;;;4.45;1.20;;;;;;;9.48;100.00;99911.47;5266393;28;20124;-67
2022/12/29 00:36:38;;;;;;;2.90;1.42;;;;;;;8.83;100.00;99882.53;5266015;28;20041;-68
2022/12/29 00:45:11;;;;;;;2.30;1.75;;;;;;;8.76;100.00;99861.00;5231550;28;20365;-67
2022/12/29 00:47:42;;;;;;;2.53;1.70;;;;;;;8.76;100.00;99864.44;5265486;28;20028;-67
2022/12/29 00:50:14;;;;;;;4.13;1.83;;;;;;;8.77;100.00;99857.50;5265127;28;20116;-67
2022/12/29 00:52:45;;;;;;;4.80;2.50;;;;;;;8.83;100.00;99859.13;5263911;28;20464;-67
2022/12/29 00:55:17;;;;;;;2.70;2.30;;;;;;;8.87;100.00;99864.25;5265520;28;20388;-67
2022/12/29 00:57:48;;;;;;;4.40;2.97;;;;;;;8.93;100.00;99850.25;5247985;28;20031;-67
2022/12/29 01:00:19;;;;;;;5.03;3.53;;;;;;;9.00;100.00;99856.16;5263994;28;20035;-68
2022/12/29 01:02:51;;;;;;;4.77;3.10;;;;;;;9.02;100.00;99851.81;5265433;28;20448;-67
2022/12/29 01:05:22;;;;;;;4.87;3.37;;;;;;;9.06;100.00;99843.03;5264896;28;20468;-67
2022/12/29 01:07:53;;;;;;;6.90;3.30;;;;;;;9.10;100.00;99852.50;5265072;28;20025;-67
2022/12/29 01:10:25;;;;;;;5.00;2.90;;;;;;;9.16;100.00;99841.09;5264736;28;20033;-67
2022/12/29 01:12:56;;;;;;;3.40;2.80;;;;;;;9.07;100.00;99824.81;5265461;28;20055;-67
2022/12/29 01:15:27;;;;;;;2.73;2.47;;;;;;;9.10;100.00;99845.53;5264694;28;20087;-67
2022/12/29 01:17:59;;;;;;;3.83;2.73;;;;;;;9.12;100.00;99825.56;5265217;28;20542;-67
2022/12/29 01:20:30;;;;;;;6.37;2.30;;;;;;;9.13;100.00;99821.22;5264484;28;20526;-67
2022/12/29 01:23:01;;;;;;;2.57;1.90;;;;;;;9.15;100.00;99824.66;5265396;28;20043;-67
2022/12/29 01:25:33;;;;;;;3.37;2.17;;;;;;;9.21;100.00;99826.25;5264777;28;20031;-67
2022/12/29 01:28:04;;;;;;;5.60;2.13;;;;;;;9.22;100.00;99834.00;5264806;28;20033;-67
2022/12/29 01:30:35;;;;;;;2.90;1.80;;;;;;;9.25;100.00;99833.94;5264865;28;20032;-66
2022/12/29 01:33:07;;;;;;;5.20;2.77;;;;;;;9.23;100.00;99825.31;5265253;28;20036;-67
2022/12/29 01:35:38;;;;;;;3.73;1.70;;;;;;;9.31;100.00;99835.56;5263793;28;20037;-66
2022/12/29 01:38:09;;;;;;;4.40;1.80;;;;;;;9.41;100.00;99826.66;5265097;28;20061;-68
2022/12/29 01:40:46;;;;;;;2.40;1.43;;;;;;;9.38;100.00;99821.50;5264682;28;20202;-68
2022/12/29 01:43:17;;;;;;;1.75;1.48;;;;;;;9.40;100.00;99826.69;5264510;28;20464;-68
2022/12/29 01:45:53;;;;;;;1.93;1.30;;;;;;;9.44;100.00;99831.78;5262841;28;20116;-68
2022/12/29 01:48:24;;;;;;;2.90;1.52;;;;;;;9.47;100.00;99825.66;5264710;28;20529;-68
2022/12/29 01:50:56;;;;;;;1.93;1.00;;;;;;;9.49;100.00;99816.06;5264301;28;20120;-68
2022/12/29 01:53:31;;;;;;;2.23;1.50;;;;;;;9.52;100.00;99842.00;5264094;28;20025;-68
2022/12/29 01:56:07;;;;;;;4.68;1.70;;;;;;;9.58;100.00;99822.78;5264198;28;20025;-67
2022/12/29 01:58:44;;;;;;;5.00;1.40;;;;;;;9.60;100.00;99831.44;5264751;28;20083;-67
2022/12/29 02:01:18;;;;;;;4.15;1.50;;;;;;;9.72;100.00;99827.66;5264622;28;20029;-68
2022/12/29 02:03:50;;;;;;;2.65;1.10;;;;;;;9.75;100.00;99823.22;5264327;28;20049;-67
2022/12/29 02:07:01;;;;;;;3.30;1.60;;;;;;;9.84;100.00;99838.63;5263593;28;20040;-68
2022/12/29 02:09:32;;;;;;;2.67;1.50;;;;;;;9.88;100.00;99831.59;5199205;28;20077;-70
2022/12/29 02:12:04;;;;;;;3.17;1.40;;;;;;;9.93;100.00;99818.47;5254779;28;20144;-68
2022/12/29 02:14:36;;;;;;;2.70;1.57;;;;;;;10.02;100.00;99821.69;5263680;28;20048;-68
2022/12/29 02:17:38;;;;;;;3.17;1.20;;;;;;;10.07;100.00;99803.34;5263660;28;20040;-67
2022/12/29 02:20:30;;;;;;;4.07;1.40;;;;;;;10.14;100.00;99840.47;5263468;28;20068;-67
2022/12/29 02:23:30;;;;;;;5.60;1.45;;;;;;;10.23;100.00;99848.06;5264687;28;20029;-67
2022/12/29 02:26:04;;;;;;;4.53;1.75;;;;;;;10.26;100.00;99831.50;5263416;28;20025;-67
2022/12/29 02:28:39;;;;;;;4.05;1.40;;;;;;;10.24;100.00;99828.94;5263432;28;20032;-70
2022/12/29 02:31:31;;;;;;;4.65;1.70;;;;;;;10.18;100.00;99805.66;5262426;28;20079;-68
2022/12/29 02:34:41;;;;;;;4.28;1.77;;;;;;;10.30;100.00;99792.28;5262961;28;20025;-67
2022/12/29 02:37:46;;;;;;;3.97;1.83;;;;;;;10.17;100.00;99807.38;5199399;28;20088;-67
2022/12/29 02:40:33;;;;;;;2.75;1.35;;;;;;;10.15;100.00;99800.53;5263467;28;20033;-69
2022/12/29 02:43:12;;;;;;;6.05;1.65;;;;;;;10.14;100.00;99794.47;5263925;28;20029;-67
2022/12/29 02:46:04;;;;;;;3.83;1.40;;;;;;;10.00;100.00;99800.03;5263104;28;20029;-67
2022/12/29 02:48:50;;;;;;;5.30;1.63;;;;;;;9.96;100.00;99801.00;5262822;28;20116;-67
2022/12/29 02:51:29;;;;;;;5.93;2.50;;;;;;;9.94;100.00;99796.75;5263769;28;20266;-68
2022/12/29 02:56:51;;;;;;;2.53;1.30;;;;;;;9.88;100.00;99791.69;5263075;28;20033;-68
2022/12/29 02:59:23;;;;;;;3.37;1.70;;;;;;;9.89;100.00;99786.44;5263106;28;20488;-68
2022/12/29 03:02:17;;;;;;;2.17;1.10;;;;;;;9.90;100.00;99779.47;5262742;28;20439;-67
2022/12/29 03:04:55;;;;;;;6.03;1.70;;;;;;;9.85;100.00;99788.28;5263173;28;20425;-67
2022/12/29 03:07:45;;;;;;;4.38;1.48;;;;;;;9.92;100.00;99782.88;5263037;28;20122;-68
2022/12/29 03:10:28;;;;;;;3.17;1.10;;;;;;;9.96;100.00;99797.56;5263183;28;20037;-68
2022/12/29 03:16:22;;;;;;;3.22;1.13;;;;;;;9.98;100.00;99783.63;5263303;28;20119;-67
2022/12/29 03:19:07;;;;;;;2.95;1.00;;;;;;;9.99;100.00;99784.47;5263081;28;20094;-68
2022/12/29 03:24:50;;;;;;;3.25;1.55;;;;;;;9.90;100.00;99774.28;5262415;28;20037;-68
2022/12/29 03:27:27;;;;;;;3.50;1.50;;;;;;;9.88;100.00;99766.50;5262510;28;20032;-68
2022/12/29 03:30:02;;;;;;;1.80;1.33;;;;;;;9.92;100.00;99780.28;5262984;28;20033;-67
2022/12/29 03:32:55;;;;;;;4.60;1.55;;;;;;;9.91;100.00;99768.19;5262124;28;20029;-67
2022/12/29 03:35:30;;;;;;;2.75;1.50;;;;;;;9.82;100.00;99764.94;5262685;28;20028;-68
2022/12/29 03:38:15;;;;;;;3.42;1.38;;;;;;;9.79;100.00;99754.59;5262800;28;20456;-67
2022/12/29 03:40:52;;;;;;;3.95;1.50;;;;;;;9.71;100.00;99777.38;5262499;28;20086;-67
2022/12/29 03:43:25;;;;;;;4.50;1.45;;;;;;;9.63;100.00;99784.53;5262901;28;20032;-67
2022/12/29 03:45:57;;;;;;;3.50;1.30;;;;;;;9.57;100.00;99787.28;5262344;28;20121;-68
2022/12/29 03:48:28;;;;;;;3.73;1.20;;;;;;;9.48;100.00;99778.81;5262356;28;20115;-67
2022/12/29 03:50:59;;;;;;;2.50;1.30;;;;;;;9.45;100.00;99765.88;5261618;28;20033;-67
2022/12/29 03:53:31;;;;;;;4.87;1.23;;;;;;;9.43;100.00;99793.63;5261995;28;20083;-67
2022/12/29 03:56:02;;;;;;;3.90;1.40;;;;;;;9.53;100.00;99775.22;5262444;28;20488;-67
2022/12/29 03:58:34;;;;;;;3.63;1.93;;;;;;;9.46;100.00;99790.97;5262368;28;20067;-67
2022/12/29 04:01:05;;;;;;;2.93;1.20;;;;;;;9.49;100.00;99798.69;5262376;28;20109;-67
2022/12/29 04:03:37;;;;;;;5.43;1.43;;;;;;;9.38;100.00;99811.09;5261875;28;20510;-72
2022/12/29 04:06:08;;;;;;;3.93;1.30;;;;;;;9.19;100.00;99802.88;5262321;28;20068;-67
2022/12/29 04:08:39;;;;;;;4.03;1.73;;;;;;;9.22;100.00;99804.56;5262243;28;20025;-67
2022/12/29 04:11:11;;;;;;;5.67;1.70;;;;;;;8.98;100.00;99775.63;5262104;28;20468;-66
2022/12/29 04:13:42;;;;;;;7.77;2.50;;;;;;;8.81;100.00;99791.59;5261957;28;20036;-66
2022/12/29 04:16:14;;;;;;;5.17;1.80;;;;;;;8.70;100.00;99794.41;5261778;28;20480;-66
2022/12/29 04:18:46;;;;;;;3.80;1.55;;;;;;;8.56;100.00;99799.03;5262029;28;20052;-66
2022/12/29 04:21:17;;;;;;;7.70;1.53;;;;;;;8.58;100.00;99812.84;5262423;28;20114;-66
2022/12/29 04:23:48;;;;;;;3.33;1.43;;;;;;;8.57;100.00;99826.75;5262260;28;20457;-66
2022/12/29 04:26:20;;;;;;;6.63;2.30;;;;;;;8.48;100.00;99826.91;5262021;28;20033;-66
2022/12/29 04:28:51;;;;;;;8.10;2.20;;;;;;;8.46;100.00;99816.56;5261544;28;20033;-66
2022/12/29 04:31:22;;;;;;;7.30;1.90;;;;;;;8.49;100.00;99807.84;5262236;28;20171;-66
2022/12/29 04:33:54;;;;;;;6.03;1.90;;;;;;;8.42;100.00;99811.41;5261690;28;20025;-66
2022/12/29 04:36:26;;;;;;;7.13;1.87;;;;;;;8.46;100.00;99806.16;5262590;28;20479;-66
2022/12/29 04:38:57;;;;;;;5.23;1.50;;;;;;;8.43;100.00;99816.59;5261389;28;20090;-66
2022/12/29 04:41:29;;;;;;;14.43;3.30;;;;;;;8.54;100.00;99819.00;5262100;28;20610;-67
2022/12/29 04:44:00;;;;;;;4.60;2.10;;;;;;;8.44;100.00;99828.72;5262038;28;20071;-66
2022/12/29 04:46:31;;;;;;;7.40;2.33;;;;;;;8.46;100.00;99826.94;5261688;28;20021;-66
2022/12/29 04:49:08;;;;;;;6.53;1.63;;;;;;;8.45;100.00;99827.81;5261581;28;20486;-66
2022/12/29 04:51:39;;;;;;;7.80;2.20;;;;;;;8.37;100.00;99835.75;5262311;28;20029;-66
2022/12/29 04:54:10;;;;;;;5.70;1.70;;;;;;;8.30;100.00;99838.47;5262017;28;20029;-66
2022/12/29 04:56:42;;;;;;;7.50;2.43;;;;;;;8.40;100.00;99843.47;5265300;28;20072;-66
2022/12/29 04:59:13;;;;;;;3.23;1.80;;;;;;;8.40;100.00;99847.78;5265181;28;20384;-67
2022/12/29 05:01:44;;;;;;;7.23;2.33;;;;;;;8.45;100.00;99866.78;5265253;28;20029;-66
2022/12/29 05:04:16;;;;;;;6.20;1.97;;;;;;;8.37;100.00;99851.31;5265178;28;20033;-66
2022/12/29 05:06:47;;;;;;;7.43;2.10;;;;;;;8.27;100.00;99852.34;5265267;28;20037;-66
2022/12/29 05:09:19;;;;;;;6.50;2.27;;;;;;;8.26;100.00;99880.94;5265152;28;20108;-67
2022/12/29 05:11:50;;;;;;;9.67;1.97;;;;;;;8.32;100.00;99867.84;5265075;28;20029;-66
2022/12/29 05:14:21;;;;;;;10.53;2.60;;;;;;;8.35;100.00;99865.22;5265271;28;20498;-66
2022/12/29 05:16:53;;;;;;;8.33;2.10;;;;;;;8.35;100.00;99868.66;5265305;28;20102;-66
2022/12/29 05:19:24;;;;;;;7.37;2.53;;;;;;;8.38;100.00;99886.78;5264991;28;20063;-66
2022/12/29 05:21:55;;;;;;;7.30;1.97;;;;;;;8.50;100.00;99883.16;5264797;28;20037;-67
2022/12/29 05:24:27;;;;;;;6.83;2.40;;;;;;;8.57;100.00;99887.31;5264747;28;20065;-67
2022/12/29 05:26:58;;;;;;;6.83;2.27;;;;;;;8.75;100.00;99880.91;5265297;28;20033;-66
2022/12/29 05:29:29;;;;;;;9.47;2.30;;;;;;;8.77;100.00;99886.09;5264869;28;20108;-67
2022/12/29 05:32:01;;;;;;;6.67;1.97;;;;;;;8.72;100.00;99886.16;5264795;28;20029;-67
2022/12/29 05:34:32;;;;;;;5.97;1.83;;;;;;;8.80;100.00;99887.78;5265141;28;20064;-68
2022/12/29 05:37:04;;;;;;;6.33;2.20;;;;;;;8.90;100.00;99878.91;5264733;28;20044;-68
2022/12/29 05:39:35;;;;;;;5.93;1.70;;;;;;;8.89;100.00;99885.84;5264862;28;20033;-67
2022/12/29 05:42:06;;;;;;;6.03;2.37;;;;;;;8.93;100.00;99902.22;5264504;28;20033;-67
2022/12/29 05:44:38;;;;;;;7.53;2.10;;;;;;;8.98;100.00;99902.13;5264600;28;20060;-67
2022/12/29 05:47:09;;;;;;;8.87;2.53;;;;;;;9.01;100.00;99905.53;5264326;28;20057;-67
2022/12/29 05:49:40;;;;;;;5.43;1.93;;;;;;;9.12;98.85;99910.50;5262715;28;20040;-67
2022/12/29 05:52:12;;;;;;;5.53;1.67;;;;;;;9.12;97.87;99913.13;5264423;28;20112;-66
2022/12/29 05:54:43;;;;;;;5.47;1.63;;;;;;;9.18;97.03;99919.94;5263885;28;20037;-67
2022/12/29 05:57:14;;;;;;;5.27;1.90;;;;;;;9.29;95.17;99926.63;5264497;28;20423;-67
2022/12/29 05:59:46;;;;;;;6.97;2.33;;;;;;;9.32;95.60;99925.69;5264077;28;20079;-66
2022/12/29 06:02:17;;;;;;;4.83;1.70;;;;;;;9.38;94.48;99922.09;5262491;28;20412;-65
2022/12/29 06:04:48;;;;;;;5.10;1.93;;;;;;;9.41;94.21;99928.09;5264768;28;20025;-66
2022/12/29 06:07:20;;;;;;;5.50;1.70;;;;;;;9.47;93.99;99914.09;5262884;28;20107;-66
2022/12/29 06:09:51;;;;;;;6.07;2.03;;;;;;;9.49;94.13;99926.16;5263730;28;20021;-66
2022/12/29 06:12:22;;;;;;;11.70;3.67;;;;;;;9.41;95.08;99935.91;5263801;28;20082;-66
2022/12/29 06:14:54;;;;;;;6.20;1.80;;;;;;;9.39;95.02;99916.88;5264330;28;20056;-66
2022/12/29 06:17:25;;;;;;;6.10;1.77;;;;;;;9.41;94.04;99928.09;5263966;28;20033;-66
2022/12/29 06:19:56;;;;;;;7.27;2.37;;;;;;;9.42;93.53;99918.56;5263668;28;20035;-67
2022/12/29 06:22:28;;;;;;;5.90;1.90;;;;;;;9.46;92.51;99923.63;5262331;28;20041;-66
2022/12/29 06:25:00;;;;;;;8.27;1.80;;;;;;;9.43;93.35;99921.09;5263470;28;20475;-66
2022/12/29 06:27:31;;;;;;;5.03;1.63;;;;;;;9.37;93.11;99916.06;5263721;28;20368;-66
2022/12/29 06:30:03;;;;;;;4.73;1.77;;;;;;;9.47;91.88;99912.34;5264189;28;20037;-66
2022/12/29 06:32:35;;;;;;;7.00;2.00;;;;;;;9.52;90.55;99914.00;5263557;28;20059;-68
2022/12/29 06:35:07;;;;;;;5.43;2.03;;;;;;;9.35;92.03;99907.41;5261920;28;20422;-66
2022/12/29 06:37:38;;;;;;;7.00;1.83;;;;;;;9.34;91.96;99915.25;5262065;28;20112;-67
2022/12/29 06:40:11;;;;;;;9.17;2.43;;;;;;;9.31;91.68;99910.97;5262674;28;20139;-67
2022/12/29 06:42:43;;;;;;;8.57;2.63;;;;;;;9.19;92.38;99906.88;5263053;28;20466;-67
2022/12/29 06:45:14;;;;;;;7.47;2.30;;;;;;;9.27;91.95;99911.94;5263026;28;20045;-67
2022/12/29 06:47:45;;;;;;;8.40;1.90;;;;;;;9.24;92.59;99918.06;5263415;28;20063;-67
2022/12/29 06:50:17;;;;;;;9.17;1.90;;;;;;;9.20;93.11;99910.34;5263114;28;20037;-67
2022/12/29 06:52:48;;;;;;;8.67;2.20;;;;;;;9.28;92.15;99913.66;5262834;28;20041;-67
2022/12/29 06:55:21;;;;;;;11.83;2.67;;;;;;;9.29;91.96;99912.78;5263225;28;20387;-67
2022/12/29 06:57:57;;;;;;;11.73;2.78;;;;;;;9.24;92.16;99909.38;5262941;28;20033;-70
2022/12/29 07:00:28;;;;;;;10.75;2.75;;;;;;;9.29;91.37;99920.56;5263623;28;20044;-68
2022/12/29 07:03:00;;;;;;;7.17;2.67;;;;;;;9.35;90.71;99935.19;5262845;28;20489;-67
2022/12/29 07:05:32;;;;;;;8.13;2.87;;;;;;;9.47;89.71;99925.34;5262695;28;20108;-70
2022/12/29 07:08:04;;;;;;;8.02;2.45;;;;;;;9.52;89.57;99932.22;5262538;28;20040;-67
2022/12/29 07:10:35;;;;;;;7.83;2.50;;;;;;;9.54;89.21;99920.03;5263201;28;20029;-64
2022/12/29 07:13:09;;;;;;;10.97;2.67;;;;;;;9.58;88.28;99930.34;5262550;28;20029;-66
2022/12/29 07:15:40;;;;;;;6.97;2.13;;;;;;;9.56;87.75;99941.66;5262651;28;20487;-66
2022/12/29 07:18:12;;;;;;;7.07;2.47;;;;;;;9.51;88.18;99946.09;5261038;28;20036;-66
2022/12/29 07:20:43;;;;;;;11.53;2.50;;;;;;;9.47;88.28;99943.56;5263188;28;20103;-66
2022/12/29 07:23:15;;;;;;;9.60;2.63;;;;;;;9.47;87.71;99966.97;5262647;28;20033;-65
2022/12/29 07:25:46;;;;;;;7.77;2.50;;;;;;;9.48;87.12;99971.31;5262424;28;20075;-66
2022/12/29 07:28:18;;;;;;;11.10;2.60;;;;;;;9.57;85.50;99959.84;5262509;28;20039;-67
2022/12/29 07:30:49;;;;;;;10.40;2.67;;;;;;;9.51;85.77;99969.53;5262416;28;20486;-68
2022/12/29 07:33:21;;;;;;;9.87;2.53;;;;;;;9.49;84.48;99988.59;5262595;28;20037;-66
2022/12/29 07:35:52;;;;;;;7.03;2.70;;;;;;;9.52;84.03;99969.50;5262217;28;20060;-67
2022/12/29 07:38:23;;;;;;;13.93;3.00;;;;;;;9.52;83.68;99998.09;5262266;28;20529;-66
2022/12/29 07:40:58;;;;;;;10.07;2.70;;;;;;;9.44;84.14;99977.44;5262399;28;20032;-66
2022/12/29 07:43:30;;;;;;;8.02;2.10;;;;;;;9.48;83.58;99973.03;5262437;28;20044;-67
2022/12/29 07:46:01;;;;;;;15.97;3.00;;;;;;;9.45;84.55;99978.28;5262784;28;20032;-67
2022/12/29 07:48:35;;;;;;;12.67;2.93;;;;;;;9.41;85.22;99985.31;5262631;28;20025;-66
2022/12/29 07:51:07;;;;;;;11.25;3.00;;;;;;;9.40;85.07;99968.00;5262207;28;20041;-69
2022/12/29 07:53:38;;;;;;;9.67;2.50;;;;;;;9.48;84.28;99981.72;5262647;28;20487;-66
2022/12/29 07:56:09;;;;;;;12.57;2.97;;;;;;;9.44;84.76;99959.25;5262032;28;20040;-75
2022/12/29 07:58:41;;;;;;;9.37;2.77;;;;;;;9.39;85.81;99981.06;5261687;28;20060;-67
2022/12/29 08:01:13;;;;;;;10.50;2.50;;;;;;;9.30;86.44;99969.94;5261763;28;20442;-68
2022/12/29 08:03:44;;;;;;;11.60;3.57;;;;;;;9.27;86.66;99974.34;5262440;28;20108;-71
2022/12/29 08:06:15;;;;;;;13.37;3.23;;;;;;;9.25;87.00;99983.94;5261591;28;20104;-67
2022/12/29 08:08:47;;;;;;;16.07;3.70;;;;;;;9.35;85.75;99990.63;5261634;28;20040;-67
2022/12/29 08:11:18;;;;;;;11.13;3.80;;;;;;;9.44;85.14;99990.47;5261671;28;20072;-69
2022/12/29 08:13:49;;;;;;;9.13;2.67;;;;;;;9.44;84.82;99987.84;5261334;28;20049;-71
2022/12/29 08:16:21;;;;;;;9.57;2.83;;;;;;;9.43;84.08;99991.34;5261665;28;20415;-68
2022/12/29 08:18:52;;;;;;;13.63;2.97;;;;;;;9.39;84.05;99979.31;5261150;28;20115;-66
2022/12/29 08:21:24;;;;;;;11.73;2.53;;;;;;;9.51;81.79;99985.97;5261857;28;20034;-66
2022/12/29 08:23:55;;;;;;;11.73;2.90;;;;;;;9.58;80.79;99997.09;5261726;28;20037;-69
2022/12/29 08:26:27;;;;;;;11.13;3.00;;;;;;;9.65;79.60;99991.75;5261418;28;20490;-69
2022/12/29 08:28:58;;;;;;;9.33;3.17;;;;;;;9.67;79.65;100026.38;5261463;28;20082;-66
2022/12/29 08:31:30;;;;;;;16.10;3.30;;;;;;;9.61;80.47;99992.72;5265625;28;20035;-66
2022/12/29 08:34:03;;;;;;;12.73;3.00;;;;;;;9.67;79.85;99992.56;5265248;28;20472;-66
2022/12/29 08:36:34;;;;;;;12.63;3.55;;;;;;;9.65;80.08;99996.94;5265495;28;20029;-66
2022/12/29 08:39:05;;;;;;;13.20;2.90;;;;;;;9.74;79.32;99997.63;5265150;28;20031;-67
2022/12/29 08:41:37;;;;;;;10.77;3.40;;;;;;;9.75;79.57;99991.56;5264578;28;20453;-70
2022/12/29 08:44:08;;;;;;;13.10;3.53;;;;;;;9.72;79.65;100002.03;5265522;28;20102;-66
2022/12/29 08:46:40;;;;;;;12.43;2.97;;;;;;;9.74;80.16;99995.91;5265325;28;20029;-66
2022/12/29 08:49:11;;;;;;;9.43;2.97;;;;;;;9.83;79.09;100011.31;5265227;28;20178;-66
2022/12/29 08:51:42;;;;;;;11.97;3.37;;;;;;;9.88;78.91;100002.53;5265655;28;20082;-66
2022/12/29 08:54:14;;;;;;;13.87;3.63;;;;;;;9.77;79.90;100001.06;5263490;28;20064;-67
2022/12/29 08:56:45;;;;;;;8.80;3.33;;;;;;;9.81;80.11;100007.88;5265031;28;20029;-66
2022/12/29 08:59:17;;;;;;;10.30;3.07;;;;;;;9.76;80.69;100001.09;5265110;28;20130;-67
2022/12/29 09:01:48;;;;;;;11.00;3.73;;;;;;;9.82;79.56;100014.81;5264753;28;20048;-67
2022/12/29 09:04:19;;;;;;;8.83;2.70;;;;;;;9.80;79.52;100013.97;5264546;28;20033;-66
2022/12/29 09:06:52;;;;;;;12.48;3.17;;;;;;;9.79;79.56;100017.47;5265317;28;20546;-67
2022/12/29 09:09:23;;;;;;;11.23;2.90;;;;;;;9.83;79.22;100003.50;5264649;28;20041;-67
2022/12/29 09:11:55;;;;;;;14.33;3.20;;;;;;;9.88;79.11;100020.78;5264639;28;20052;-67
2022/12/29 09:14:26;;;;;;;10.93;3.30;;;;;;;9.80;82.27;100021.78;5264802;28;20032;-66
2022/12/29 09:19:47;;;;;;;10.13;3.08;;;;;;;9.48;83.94;100020.75;5263254;28;20045;-67
2022/12/29 09:22:18;;;;;;;6.40;2.10;;;;;;;9.36;84.88;100014.94;5264818;28;20033;-67
2022/12/29 09:24:50;;;;;;;15.10;3.90;;;;;;;9.02;89.81;100021.63;5264478;28;20104;-67
2022/12/29 09:27:21;;;;;;;12.53;2.80;;;;;;;8.71;93.81;100037.78;5264226;28;20486;-67
2022/12/29 09:29:53;;;;;;;12.73;2.87;;;;;;;8.68;93.68;100048.22;5264425;28;20468;-68
2022/12/29 09:32:24;;;;;;;12.87;3.03;;;;;;;8.69;93.35;100038.69;5264663;28;20156;-67
2022/12/29 09:34:55;;;;;;;10.33;2.73;;;;;;;8.51;95.14;100048.50;5263833;28;20111;-68
2022/12/29 09:37:27;;;;;;;10.13;2.50;;;;;;;8.47;95.16;100056.34;5264423;28;20032;-70
2022/12/29 09:39:59;;;;;;;10.80;3.47;;;;;;;8.48;94.67;100061.53;5263921;28;20498;-69
2022/12/29 09:42:56;;;;;;;9.03;2.87;;;;;;;8.50;97.32;100053.69;5264200;28;20044;-66
2022/12/29 09:45:35;;;;;;;12.52;3.15;;;;;;;8.55;94.86;100057.09;5235070;28;20072;-66
2022/12/29 09:48:14;;;;;;;9.60;3.25;;;;;;;8.55;98.80;100060.56;5263794;28;20033;-67
2022/12/29 09:51:10;;;;;;;12.60;2.95;;;;;;;8.54;96.78;100068.38;5264369;28;20082;-66
2022/12/29 09:53:51;;;;;;;13.90;2.83;;;;;;;8.55;96.32;100064.91;5264102;28;20139;-66
2022/12/29 09:56:26;;;;;;;13.65;3.17;;;;;;;8.53;97.39;100093.50;5263532;28;20029;-67
2022/12/29 09:59:23;;;;;;;9.80;2.50;;;;;;;8.40;100.00;100087.59;5264262;28;20112;-67
2022/12/29 10:02:23;;;;;;;11.35;3.65;;;;;;;8.30;99.78;100091.19;5263705;28;20602;-67
2022/12/29 10:04:54;;;;;;;13.50;3.22;;;;;;;8.17;100.00;100097.44;5263676;28;20444;-67
2022/12/29 10:07:40;;;;;;;13.60;4.20;;;;;;;8.28;100.00;100113.75;5263661;28;20099;-68
2022/12/29 10:10:51;;;;;;;10.48;3.28;;;;;;;8.17;100.00;100115.63;5263515;28;20090;-66
2022/12/29 10:14:03;;;;;;;14.55;3.40;;;;;;;8.00;100.00;100118.44;5263122;28;20041;-66
2022/12/29 10:16:43;;;;;;;9.75;2.67;;;;;;;7.90;100.00;100117.69;5264134;28;20368;-66
2022/12/29 10:19:35;;;;;;;16.70;3.38;;;;;;;7.86;100.00;100152.34;5263282;28;20029;-66
2022/12/29 10:22:23;;;;;;;13.27;2.80;;;;;;;7.82;100.00;100145.47;5263254;28;20147;-66
2022/12/29 10:24:56;;;;;;;13.10;3.38;;;;;;;7.75;100.00;100142.09;5263854;28;20029;-67
2022/12/29 10:27:32;;;;;;;9.15;2.55;;;;;;;7.84;100.00;100160.16;5263319;28;20032;-66
2022/12/29 10:30:04;;;;;;;13.77;3.35;;;;;;;7.80;100.00;100152.44;5263128;28;20115;-67
2022/12/29 10:32:42;;;;;;;13.53;3.57;;;;;;;7.75;100.00;100155.06;5263153;28;20544;-67
2022/12/29 10:35:17;;;;;;;13.23;3.10;;;;;;;7.77;100.00;100168.88;5263338;28;20366;-67
2022/12/29 10:37:58;;;;;;;12.98;3.40;;;;;;;7.76;100.00;100174.09;5263277;28;20100;-66
2022/12/29 10:40:38;;;;;;;13.25;3.33;;;;;;;7.81;100.00;100170.56;5263427;28;20120;-67
2022/12/29 10:43:26;;;;;;;13.57;3.00;;;;;;;7.75;100.00;100181.00;5263539;28;20035;-68
2022/12/29 10:46:04;;;;;;;10.93;3.03;;;;;;;7.76;100.00;100171.47;5262908;28;20029;-66
2022/12/29 10:48:35;;;;;;;11.35;3.25;;;;;;;7.85;100.00;100202.53;5263216;28;20423;-67
2022/12/29 10:51:08;;;;;;;14.33;3.27;;;;;;;7.88;100.00;100183.47;5262865;28;20111;-67
2022/12/29 10:53:51;;;;;;;14.00;2.85;;;;;;;7.91;100.00;100184.31;5262058;28;20657;-67
2022/12/29 10:56:26;;;;;;;9.95;3.28;;;;;;;7.94;100.00;100199.84;5262793;28;20032;-66
2022/12/29 10:59:03;;;;;;;12.25;3.00;;;;;;;7.91;100.00;100204.22;5262607;28;20035;-66
2022/12/29 11:01:46;;;;;;;11.95;2.85;;;;;;;7.94;100.00;100210.22;5263115;28;20029;-66
2022/12/29 11:04:39;;;;;;;17.95;3.78;;;;;;;7.93;100.00;100205.03;5262260;28;20045;-69
2022/12/29 11:07:12;;;;;;;17.52;3.35;;;;;;;7.75;100.00;100211.31;5262924;28;20044;-67
2022/12/29 11:09:45;;;;;;;11.25;3.35;;;;;;;7.71;100.00;100219.97;5262785;28;20037;-66
2022/12/29 11:12:27;;;;;;;;;;;;;;;7.63;100.00;100215.75;5263517;28;20044;-67
2022/12/29 11:15:12;;;;;;;13.45;3.97;;;;;;;7.62;100.00;100221.78;5262274;28;19931;-67
2022/12/29 11:18:02;;;;;;;14.98;3.33;;;;;;;7.60;100.00;100218.34;5262462;28;20455;-66
2022/12/29 11:20:38;;;;;;;13.68;3.88;;;;;;;7.70;100.00;100215.69;5262631;28;20127;-67
2022/12/29 11:23:31;;;;;;;14.25;3.30;;;;;;;7.70;100.00;100218.28;5262846;28;20108;-67
2022/12/29 11:26:15;;;;;;;18.92;4.97;;;;;;;7.84;100.00;100221.56;5262292;28;20090;-67
2022/12/29 11:29:15;;;;;;;14.50;3.70;;;;;;;7.91;100.00;100231.00;5262188;28;20503;-70
2022/12/29 11:31:49;;;;;;;17.42;4.68;;;;;;;7.95;100.00;100224.94;5262722;28;20510;-67
2022/12/29 11:34:25;;;;;;;12.05;3.47;;;;;;;8.02;100.00;100226.56;5262096;28;20053;-66
2022/12/29 11:37:04;;;;;;;14.10;4.35;;;;;;;8.04;100.00;100234.34;5260842;28;20029;-66
2022/12/29 11:40:03;;;;;;;11.95;3.15;;;;;;;8.15;100.00;100235.06;5262381;28;20126;-66
2022/12/29 11:42:51;;;;;;;11.20;3.85;;;;;;;8.22;100.00;100243.63;5262904;28;20048;-66
2022/12/29 11:45:35;;;;;;;13.20;3.72;;;;;;;8.27;100.00;100244.44;5262518;28;20164;-66
2022/12/29 11:48:17;;;;;;;15.68;3.13;;;;;;;8.35;100.00;100245.19;5262027;28;20025;-68
2022/12/29 11:50:52;;;;;;;12.65;4.25;;;;;;;8.49;100.00;100258.06;5262588;28;20108;-67
2022/12/29 11:53:26;;;;;;;13.05;3.92;;;;;;;8.57;100.00;100245.84;5262041;28;20040;-68
2022/12/29 11:56:01;;;;;;;12.48;3.45;;;;;;;8.65;100.00;100247.47;5261874;28;20537;-67
2022/12/29 11:58:36;;;;;;;17.67;3.95;;;;;;;8.72;100.00;100255.16;5262588;28;20072;-67
2022/12/29 12:01:19;;;;;;;15.00;3.72;;;;;;;8.76;100.00;100251.66;5262010;28;20488;-67
2022/12/29 12:04:21;;;;;;;16.38;3.72;;;;;;;8.80;100.00;100247.25;5262941;28;20500;-67
2022/12/29 12:07:05;;;;;;;12.85;3.83;;;;;;;8.92;100.00;100244.50;5266399;28;20025;-67
2022/12/29 12:09:54;;;;;;;16.63;3.70;;;;;;;9.03;97.92;100249.53;5266118;28;20036;-67
2022/12/29 12:12:41;;;;;;;13.15;3.65;;;;;;;9.38;96.00;100244.66;5266701;28;20083;-68
2022/12/29 12:15:24;;;;;;;13.13;3.42;;;;;;;9.35;94.35;100245.53;5265830;28;20472;-67
2022/12/29 12:17:55;;;;;;;12.75;3.95;;;;;;;9.30;94.25;100258.63;5266423;28;20025;-68
2022/12/29 12:20:38;;;;;;;15.73;4.10;;;;;;;9.25;93.39;100255.25;5264988;28;20477;-66
2022/12/29 12:23:57;;;;;;;12.25;3.05;;;;;;;9.25;93.18;100257.84;5265748;28;20413;-67
2022/12/29 12:26:37;;;;;;;13.73;3.92;;;;;;;9.21;93.14;100260.50;5260665;28;20060;-67
2022/12/29 12:29:19;;;;;;;12.63;3.33;;;;;;;9.31;93.66;100254.31;5264994;28;20025;-71
2022/12/29 12:31:59;;;;;;;11.82;3.35;;;;;;;9.46;91.74;100261.84;5266227;28;20423;-67
2022/12/29 12:34:37;;;;;;;12.55;3.88;;;;;;;9.56;89.61;100253.88;5265352;28;20021;-68
2022/12/29 12:37:14;;;;;;;12.05;3.83;;;;;;;9.96;90.78;100248.81;5265350;28;20087;-67
2022/12/29 12:40:25;;;;;;;10.40;3.53;;;;;;;10.21;85.96;100259.63;5265336;28;20123;-66
2022/12/29 12:43:11;;;;;;;11.00;3.17;;;;;;;10.73;82.24;100238.63;5201138;28;20026;-67
2022/12/29 12:46:20;;;;;;;8.65;2.90;;;;;;;10.69;81.49;100252.59;5260522;28;20037;-69
2022/12/29 12:49:17;;;;;;;16.83;3.30;;;;;;;10.50;80.44;100273.84;5265946;28;20060;-66
2022/12/29 12:52:05;;;;;;;10.88;3.00;;;;;;;10.47;81.12;100267.84;5265209;28;20025;-67